sensor_id;sensor_type;location;lat;lon;timestamp;pressure;altitude;pressure_sealevel;temperature;humidity
31011;BME280;26395;53.412;19.598;2022-09-09T00:11:13;100099.17;;;17.86;56.02
31011;BME280;26395;53.412;19.598;2022-09-09T00:26:38;100096.91;;;17.77;56.70
31011;BME280;26395;53.412;19.598;2022-09-09T00:42:43;100091.58;;;17.70;57.46
31011;BME280;26395;53.412;19.598;2022-09-09T00:57:34;100089.95;;;17.69;57.77
31011;BME280;26395;53.412;19.598;2022-09-09T01:12:42;100097.80;;;17.62;58.11
31011;BME280;26395;53.412;19.598;2022-09-09T01:27:55;100117.59;;;17.12;62.63
31011;BME280;26395;53.412;19.598;2022-09-09T01:43:02;100129.95;;;16.40;68.46
31011;BME280;26395;53.412;19.598;2022-09-09T02:13:40;100139.38;;;15.54;77.96
31011;BME280;26395;53.412;19.598;2022-09-09T02:28:48;100137.42;;;15.54;78.98
31011;BME280;26395;53.412;19.598;2022-09-09T02:43:54;100137.91;;;15.48;80.57
31011;BME280;26395;53.412;19.598;2022-09-09T02:58:57;100134.80;;;15.29;83.43
31011;BME280;26395;53.412;19.598;2022-09-09T03:14:01;100144.77;;;14.94;86.77
31011;BME280;26395;53.412;19.598;2022-09-09T03:29:07;100134.32;;;14.65;93.70
31011;BME280;26395;53.412;19.598;2022-09-09T03:44:10;100135.19;;;14.41;96.49
31011;BME280;26395;53.412;19.598;2022-09-09T03:59:14;100132.17;;;14.33;98.75
31011;BME280;26395;53.412;19.598;2022-09-09T04:14:19;100132.62;;;14.19;99.51
31011;BME280;26395;53.412;19.598;2022-09-09T04:29:22;100139.41;;;14.13;100.00
31011;BME280;26395;53.412;19.598;2022-09-09T04:44:26;100143.95;;;13.93;100.00
31011;BME280;26395;53.412;19.598;2022-09-09T04:59:29;100145.80;;;13.85;100.00
31011;BME280;26395;53.412;19.598;2022-09-09T05:14:34;100155.67;;;13.82;100.00
31011;BME280;26395;53.412;19.598;2022-09-09T05:29:40;100153.95;;;13.71;100.00
31011;BME280;26395;53.412;19.598;2022-09-09T05:44:46;100148.73;;;13.64;100.00
31011;BME280;26395;53.412;19.598;2022-09-09T05:59:50;100156.52;;;13.65;100.00
31011;BME280;26395;53.412;19.598;2022-09-09T06:14:54;100164.52;;;13.74;100.00
31011;BME280;26395;53.412;19.598;2022-09-09T06:29:57;100175.88;;;13.82;100.00
31011;BME280;26395;53.412;19.598;2022-09-09T06:45:01;100195.71;;;13.89;100.00
31011;BME280;26395;53.412;19.598;2022-09-09T07:00:12;100202.06;;;13.84;100.00
31011;BME280;26395;53.412;19.598;2022-09-09T07:15:17;100204.91;;;13.92;100.00
31011;BME280;26395;53.412;19.598;2022-09-09T07:30:22;100205.81;;;14.12;100.00
31011;BME280;26395;53.412;19.598;2022-09-09T07:45:30;100216.86;;;14.44;100.00
31011;BME280;26395;53.412;19.598;2022-09-09T08:00:34;100215.50;;;14.52;100.00
31011;BME280;26395;53.412;19.598;2022-09-09T08:15:38;100238.07;;;14.64;100.00
31011;BME280;26395;53.412;19.598;2022-09-09T08:30:41;100249.13;;;14.41;100.00
31011;BME280;26395;53.412;19.598;2022-09-09T08:46:08;100258.72;;;14.19;100.00
31011;BME280;26395;53.412;19.598;2022-09-09T09:01:18;100270.52;;;14.26;100.00
31011;BME280;26395;53.412;19.598;2022-09-09T09:16:40;100274.52;;;14.36;100.00
31011;BME280;26395;53.412;19.598;2022-09-09T09:31:55;100284.94;;;14.48;100.00
31011;BME280;26395;53.412;19.598;2022-09-09T09:47:20;100289.45;;;14.59;100.00
31011;BME280;26395;53.412;19.598;2022-09-09T10:02:39;100285.95;;;14.64;100.00
31011;BME280;26395;53.412;19.598;2022-09-09T10:18:19;100294.52;;;14.81;100.00
31011;BME280;26395;53.412;19.598;2022-09-09T10:33:50;100293.91;;;14.77;100.00
31011;BME280;26395;53.412;19.598;2022-09-09T10:48:57;100312.42;;;14.73;100.00
31011;BME280;26395;53.412;19.598;2022-09-09T11:04:17;100321.07;;;14.76;100.00
31011;BME280;26395;53.412;19.598;2022-09-09T11:19:48;100325.46;;;14.89;100.00
31011;BME280;26395;53.412;19.598;2022-09-09T11:35:01;100331.05;;;15.04;100.00
31011;BME280;26395;53.412;19.598;2022-09-09T12:05:18;100343.54;;;14.97;100.00
31011;BME280;26395;53.412;19.598;2022-09-09T12:35:34;100350.75;;;15.01;100.00
31011;BME280;26395;53.412;19.598;2022-09-09T12:50:47;100350.66;;;15.17;100.00
31011;BME280;26395;53.412;19.598;2022-09-09T13:05:54;100356.39;;;15.29;100.00
31011;BME280;26395;53.412;19.598;2022-09-09T13:21:04;100352.65;;;15.34;100.00
31011;BME280;26395;53.412;19.598;2022-09-09T13:36:11;100331.23;;;15.44;100.00
31011;BME280;26395;53.412;19.598;2022-09-09T13:51:21;100331.53;;;15.49;100.00
31011;BME280;26395;53.412;19.598;2022-09-09T14:06:29;100339.11;;;15.51;100.00
31011;BME280;26395;53.412;19.598;2022-09-09T14:21:33;100333.45;;;15.55;100.00
31011;BME280;26395;53.412;19.598;2022-09-09T14:36:37;100358.01;;;15.50;100.00
31011;BME280;26395;53.412;19.598;2022-09-09T14:51:41;100358.99;;;15.49;100.00
31011;BME280;26395;53.412;19.598;2022-09-09T15:06:45;100364.75;;;15.47;100.00
31011;BME280;26395;53.412;19.598;2022-09-09T15:21:51;100369.38;;;15.31;100.00
31011;BME280;26395;53.412;19.598;2022-09-09T15:36:56;100371.98;;;15.22;100.00
31011;BME280;26395;53.412;19.598;2022-09-09T15:54:54;100371.09;;;15.30;100.00
31011;BME280;26395;53.412;19.598;2022-09-09T16:09:58;100372.00;;;15.23;100.00
31011;BME280;26395;53.412;19.598;2022-09-09T16:25:02;100367.15;;;15.22;100.00
31011;BME280;26395;53.412;19.598;2022-09-09T16:40:06;100379.18;;;15.13;100.00
31011;BME280;26395;53.412;19.598;2022-09-09T16:55:11;100376.67;;;15.07;100.00
31011;BME280;26395;53.412;19.598;2022-09-09T17:10:15;100392.34;;;15.09;100.00
31011;BME280;26395;53.412;19.598;2022-09-09T17:25:20;100402.11;;;15.11;100.00
31011;BME280;26395;53.412;19.598;2022-09-09T17:40:27;100412.43;;;15.07;100.00
31011;BME280;26395;53.412;19.598;2022-09-09T17:55:32;100424.27;;;14.98;100.00
31011;BME280;26395;53.412;19.598;2022-09-09T18:10:37;100429.80;;;15.04;100.00
31011;BME280;26395;53.412;19.598;2022-09-09T18:25:43;100424.11;;;15.02;100.00
31011;BME280;26395;53.412;19.598;2022-09-09T18:40:47;100428.92;;;15.03;100.00
31011;BME280;26395;53.412;19.598;2022-09-09T18:55:58;100449.30;;;14.93;100.00
31011;BME280;26395;53.412;19.598;2022-09-09T19:11:04;100452.60;;;14.76;100.00
31011;BME280;26395;53.412;19.598;2022-09-09T19:26:13;100456.02;;;14.65;100.00
31011;BME280;26395;53.412;19.598;2022-09-09T19:41:21;100443.62;;;14.62;100.00
31011;BME280;26395;53.412;19.598;2022-09-09T19:56:29;100430.24;;;14.50;100.00
31011;BME280;26395;53.412;19.598;2022-09-09T20:11:34;100435.55;;;14.53;100.00
31011;BME280;26395;53.412;19.598;2022-09-09T20:26:39;100439.73;;;14.54;100.00
31011;BME280;26395;53.412;19.598;2022-09-09T20:41:44;100449.55;;;14.51;100.00
31011;BME280;26395;53.412;19.598;2022-09-09T20:56:49;100437.20;;;14.49;100.00
31011;BME280;26395;53.412;19.598;2022-09-09T21:11:53;100440.08;;;14.43;100.00
31011;BME280;26395;53.412;19.598;2022-09-09T21:26:57;100460.32;;;14.42;100.00
31011;BME280;26395;53.412;19.598;2022-09-09T21:42:03;100458.97;;;14.43;100.00
31011;BME280;26395;53.412;19.598;2022-09-09T21:57:07;100448.02;;;14.35;100.00
31011;BME280;26395;53.412;19.598;2022-09-09T22:12:10;100451.89;;;14.38;100.00
31011;BME280;26395;53.412;19.598;2022-09-09T22:27:13;100454.11;;;14.40;100.00
31011;BME280;26395;53.412;19.598;2022-09-09T22:42:17;100426.66;;;14.39;100.00
31011;BME280;26395;53.412;19.598;2022-09-09T22:57:21;100426.42;;;14.27;100.00
31011;BME280;26395;53.412;19.598;2022-09-09T23:12:24;100423.01;;;14.28;100.00
31011;BME280;26395;53.412;19.598;2022-09-09T23:27:27;100420.77;;;14.27;100.00
31011;BME280;26395;53.412;19.598;2022-09-09T23:42:31;100419.45;;;14.28;100.00
31011;BME280;26395;53.412;19.598;2022-09-09T23:57:35;100411.91;;;14.22;100.00
